MDT,Max TemperatureF,Mean TemperatureF,Min TemperatureF,Max Dew PointF,MeanDew PointF,Min DewpointF,Max Humidity, Mean Humidity, Min Humidity, Max Sea Level PressureIn, Mean Sea Level PressureIn, Min Sea Level PressureIn, Max VisibilityMiles, Mean VisibilityMiles, Min VisibilityMiles, Max Wind SpeedMPH, Mean Wind SpeedMPH, Max Gust SpeedMPH,PrecipitationIn, CloudCover, Events, WindDirDegrees
2012-10-1,66,53,39,49,42,34,86,63,37,30.17,30.10,29.97,10,10,10,24,13,31,0.01,1,,344
2012-10-2,80,59,37,43,38,32,86,55,21,30.11,29.92,29.77,10,10,10,17,9,,0.00,0,,206
2012-10-3,87,65,42,42,33,25,69,38,11,30.11,29.80,29.68,10,10,9,33,10,43,0.00,0,,248
2012-10-4,55,44,33,30,27,24,78,55,33,30.34,30.26,30.14,10,10,10,18,13,36,0.00,0,,25
2012-10-5,39,36,32,34,31,24,100,85,70,30.38,30.29,30.19,10,8,0,17,10,21,T,7,Fog-Snow,98
2012-10-6,37,34,31,34,32,29,100,94,87,30.39,30.31,30.26,10,5,1,15,8,,0.11,8,Rain-Snow,119
2012-10-7,55,43,31,38,32,21,100,78,29,30.34,30.19,30.05,10,8,1,15,7,,0.00,6,,207
2012-10-8,71,53,34,32,26,14,79,46,12,30.05,29.90,29.77,10,10,10,16,10,18,0.00,0,,221
2012-10-9,55,43,30,37,33,26,89,71,47,30.26,30.03,29.73,10,10,10,24,13,31,0.00,3,,357
2012-10-10,66,47,27,37,33,25,92,63,32,30.26,30.11,29.93,10,10,0,25,12,34,0.00,0,,195
2012-10-11,64,49,34,40,36,30,82,61,37,30.26,30.04,29.87,10,10,10,20,10,26,0.00,0,,12
2012-10-12,64,48,32,47,35,26,83,63,44,30.26,30.08,29.80,10,10,10,23,10,39,0.00,4,,163
2012-10-13,69,56,43,52,44,38,100,72,35,29.92,29.79,29.65,10,8,2,26,16,38,T,3,Rain-Thunderstorm,282
2012-10-14,71,57,43,40,35,32,79,52,24,30.16,30.09,29.95,10,10,10,21,13,29,0.00,0,,300
2012-10-15,79,59,39,39,34,31,79,47,18,30.07,29.90,29.74,10,10,10,10,8,,0.00,0,,224
2012-10-16,77,60,43,36,33,30,63,39,19,29.79,29.61,29.40,10,10,10,28,11,43,0.00,0,,261
2012-10-17,61,46,31,38,23,10,76,39,15,29.97,29.75,29.50,10,10,5,31,21,51,0.00,1,,336
2012-10-18,59,46,32,19,13,6,56,34,13,30.07,30.02,29.97,10,10,9,40,17,47,0.00,0,,311
2012-10-19,72,51,30,23,19,13,52,32,15,30.06,29.91,29.77,10,10,10,13,10,16,0.00,0,,252
2012-10-20,82,61,40,28,23,16,53,30,9,29.78,29.68,29.58,10,10,10,20,12,24,0.00,0,,215
2012-10-21,72,57,41,35,31,23,63,40,24,29.78,29.69,29.57,10,10,10,18,13,29,0.00,0,,356
2012-10-22,65,49,33,49,41,30,100,80,50,29.95,29.83,29.69,10,8,0,18,10,25,0.00,2,Fog,340
2012-10-23,83,60,36,48,34,19,100,60,10,29.73,29.66,29.58,10,7,1,23,13,37,0.00,2,,210
2012-10-24,53,43,32,45,41,29,96,83,38,29.93,29.78,29.62,10,8,3,29,15,36,0.09,8,Rain,22
2012-10-25,43,36,29,30,27,22,93,79,47,30.36,30.17,29.94,10,8,2,24,17,32,T,4,Snow,13
2012-10-26,35,30,24,28,25,22,93,85,75,30.55,30.43,30.34,10,8,1,15,5,,0.05,7,Snow,148
2012-10-27,50,37,24,31,25,22,100,81,36,30.31,30.21,30.10,10,8,2,15,11,,0.00,2,,197
2012-10-28,63,46,28,29,27,24,85,57,26,30.22,30.10,29.99,10,10,10,26,11,32,0.00,3,,221
2012-10-29,73,54,35,33,29,26,73,47,20,30.12,30.04,29.99,10,10,10,14,9,16,0.00,0,,246
2012-10-30,72,56,40,36,33,30,67,47,25,30.07,30.01,29.97,10,10,10,22,11,22,0.00,0,,304
2012-10-31,74,56,37,34,30,27,73,46,18,30.09,30.03,29.98,10,10,10,18,11,26,0.00,0,,285